createdAt,value
2022-08-27T00:00:40.936Z,19.51
2022-08-27T00:01:41.928Z,19.47
2022-08-27T00:02:40.899Z,19.37
2022-08-27T00:03:40.893Z,19.30
2022-08-27T00:04:40.961Z,19.14
2022-08-27T00:05:40.907Z,19.24
2022-08-27T00:06:40.872Z,19.16
2022-08-27T00:07:40.919Z,19.16
2022-08-27T00:08:40.885Z,19.21
2022-08-27T00:09:40.847Z,19.15
2022-08-27T00:10:40.874Z,19.19
2022-08-27T00:11:40.833Z,19.16
2022-08-27T00:12:40.826Z,19.18
2022-08-27T00:13:40.823Z,19.18
2022-08-27T00:14:40.808Z,19.19
2022-08-27T00:15:40.803Z,19.02
2022-08-27T00:16:40.843Z,19.19
2022-08-27T00:17:40.786Z,19.14
2022-08-27T00:18:40.776Z,19.08
2022-08-27T00:19:40.770Z,18.96
2022-08-27T00:20:40.789Z,19.08
2022-08-27T00:21:40.750Z,19.00
2022-08-27T00:22:40.743Z,18.96
2022-08-27T00:23:40.744Z,18.95
2022-08-27T00:24:42.086Z,18.92
2022-08-27T00:25:41.752Z,18.95
2022-08-27T00:26:43.312Z,18.98
2022-08-27T00:27:41.708Z,19.02
2022-08-27T00:28:40.700Z,19.12
2022-08-27T00:29:40.685Z,19.11
2022-08-27T00:30:40.681Z,19.09
2022-08-27T00:31:40.737Z,19.16
2022-08-27T00:32:40.664Z,19.18
2022-08-27T00:33:40.659Z,19.19
2022-08-27T00:34:40.658Z,19.16
2022-08-27T00:35:40.640Z,19.22
2022-08-27T00:36:40.661Z,19.29
2022-08-27T00:37:40.624Z,19.24
2022-08-27T00:38:40.622Z,19.33
2022-08-27T00:39:40.613Z,19.34
2022-08-27T00:40:40.604Z,19.30
2022-08-27T00:41:40.615Z,19.27
2022-08-27T00:42:40.586Z,19.41
2022-08-27T00:43:40.580Z,19.37
2022-08-27T00:44:40.569Z,19.40
2022-08-27T00:45:40.641Z,19.36
2022-08-27T00:46:40.582Z,19.47
2022-08-27T00:47:40.567Z,19.39
2022-08-27T00:48:40.548Z,19.54
2022-08-27T00:49:40.537Z,19.58
2022-08-27T00:50:40.530Z,19.48
2022-08-27T00:51:40.549Z,19.56
2022-08-27T00:52:40.516Z,19.52
2022-08-27T00:53:40.505Z,19.49
2022-08-27T00:54:40.497Z,19.51
2022-08-27T00:55:40.488Z,19.56
2022-08-27T00:56:41.510Z,19.59
2022-08-27T00:57:40.474Z,19.66
2022-08-27T00:58:40.467Z,19.63
2022-08-27T00:59:40.461Z,19.59
2022-08-27T01:00:40.470Z,19.58
2022-08-27T01:01:40.470Z,19.48
2022-08-27T01:02:40.445Z,19.52
2022-08-27T01:03:40.434Z,19.58
2022-08-27T01:04:40.419Z,19.55
2022-08-27T01:05:40.417Z,19.56
2022-08-27T01:06:40.430Z,19.62
2022-08-27T01:07:40.405Z,19.58
2022-08-27T01:08:40.392Z,19.63
2022-08-27T01:09:40.385Z,19.67
2022-08-27T01:10:41.388Z,19.63
2022-08-27T01:11:40.399Z,19.67
2022-08-27T01:12:40.360Z,19.67
2022-08-27T01:14:00.454Z,19.74
2022-08-27T01:14:41.345Z,19.70
2022-08-27T01:15:40.346Z,19.62
2022-08-27T01:16:40.445Z,19.76
2022-08-27T01:17:40.329Z,19.70
2022-08-27T01:18:40.317Z,19.73
2022-08-27T01:19:40.314Z,19.74
2022-08-27T01:20:40.308Z,19.82
2022-08-27T01:21:40.327Z,19.71
2022-08-27T01:22:40.289Z,19.73
2022-08-27T01:23:40.270Z,19.74
2022-08-27T01:24:41.272Z,19.74
2022-08-27T01:25:40.272Z,19.79
2022-08-27T01:26:40.261Z,19.79
2022-08-27T01:27:40.275Z,19.76
2022-08-27T01:28:40.239Z,19.79
2022-08-27T01:29:40.241Z,19.74
2022-08-27T01:30:40.228Z,19.81
2022-08-27T01:31:40.326Z,19.79
2022-08-27T01:32:40.203Z,19.84
2022-08-27T01:33:40.198Z,19.79
2022-08-27T01:34:40.194Z,19.88
2022-08-27T01:35:40.338Z,19.81
2022-08-27T01:36:40.177Z,19.81
2022-08-27T01:37:40.198Z,19.74
2022-08-27T01:38:40.168Z,19.92
2022-08-27T01:39:40.718Z,19.88
2022-08-27T01:40:40.242Z,19.84
2022-08-27T01:41:40.170Z,19.88
2022-08-27T01:42:40.132Z,19.88
2022-08-27T01:43:40.125Z,19.92
2022-08-27T01:44:40.120Z,19.89
2022-08-27T01:45:40.115Z,19.96
2022-08-27T01:46:40.175Z,19.96
2022-08-27T01:47:40.104Z,20.03
2022-08-27T01:48:40.090Z,19.95
2022-08-27T01:49:40.088Z,19.95
2022-08-27T01:50:40.074Z,19.94
2022-08-27T01:51:40.088Z,19.89
2022-08-27T01:52:40.063Z,20.00
2022-08-27T01:53:40.065Z,19.91
2022-08-27T01:54:40.043Z,19.92
2022-08-27T01:55:40.036Z,19.89
2022-08-27T01:56:40.055Z,19.94
2022-08-27T01:57:40.027Z,19.91
2022-08-27T01:58:40.007Z,19.88
2022-08-27T01:59:40.185Z,19.86
2022-08-27T02:00:40.024Z,19.91
2022-08-27T02:01:40.043Z,19.95
2022-08-27T02:02:39.978Z,19.95
2022-08-27T02:03:40.984Z,19.91
2022-08-27T02:04:39.972Z,19.96
2022-08-27T02:05:45.043Z,20.03
2022-08-27T02:06:40.975Z,20.00
2022-08-27T02:07:39.949Z,20.02
2022-08-27T02:08:39.931Z,20.09
2022-08-27T02:09:39.936Z,20.00
2022-08-27T02:10:39.931Z,20.02
2022-08-27T02:11:44.862Z,19.99
2022-08-27T02:12:40.909Z,20.11
2022-08-27T02:13:39.906Z,20.09
2022-08-27T02:14:39.895Z,20.02
2022-08-27T02:15:39.890Z,20.03
2022-08-27T02:16:41.973Z,20.03
2022-08-27T02:17:40.869Z,19.94
2022-08-27T02:18:41.652Z,20.00
2022-08-27T02:19:39.848Z,19.89
2022-08-27T02:20:39.840Z,19.92
2022-08-27T02:21:39.857Z,20.02
2022-08-27T02:22:39.826Z,20.02
2022-08-27T02:23:39.829Z,20.09
2022-08-27T02:24:39.809Z,20.10
2022-08-27T02:25:39.809Z,19.96
2022-08-27T02:26:39.791Z,20.02
2022-08-27T02:27:39.815Z,19.91
2022-08-27T02:28:39.784Z,19.95
2022-08-27T02:29:39.767Z,20.02
2022-08-27T02:30:39.768Z,20.06
2022-08-27T02:31:39.810Z,20.03
2022-08-27T02:32:39.782Z,20.10
2022-08-27T02:33:39.748Z,20.10
2022-08-27T02:34:39.730Z,20.10
2022-08-27T02:35:39.728Z,20.04
2022-08-27T02:36:39.722Z,19.99
2022-08-27T02:37:39.737Z,20.00
2022-08-27T02:38:39.708Z,20.03
2022-08-27T02:39:42.098Z,20.00
2022-08-27T02:40:40.691Z,20.03
2022-08-27T02:41:39.679Z,20.11
2022-08-27T02:42:39.698Z,20.06
2022-08-27T02:43:39.669Z,20.02
2022-08-27T02:44:39.652Z,20.04
2022-08-27T02:45:39.639Z,20.14
2022-08-27T02:46:40.690Z,20.09
2022-08-27T02:47:39.656Z,19.99
2022-08-27T02:48:40.621Z,20.07
2022-08-27T02:49:39.613Z,20.07
2022-08-27T02:50:39.610Z,20.07
2022-08-27T02:51:39.601Z,20.02
2022-08-27T02:52:39.623Z,20.09
2022-08-27T02:53:39.583Z,20.07
2022-08-27T02:54:39.580Z,20.10
2022-08-27T02:55:39.574Z,20.13
2022-08-27T02:56:39.565Z,20.06
2022-08-27T02:57:39.581Z,20.06
2022-08-27T02:58:39.558Z,20.13
2022-08-27T02:59:39.542Z,20.18
2022-08-27T03:00:39.539Z,20.25
2022-08-27T03:01:39.630Z,20.13
2022-08-27T03:02:39.764Z,20.22
2022-08-27T03:03:39.512Z,20.29
2022-08-27T03:04:39.501Z,20.41
2022-08-27T03:05:39.502Z,20.31
2022-08-27T03:06:39.498Z,20.34
2022-08-27T03:07:39.507Z,20.29
2022-08-27T03:08:52.387Z,20.25
2022-08-27T03:09:40.462Z,20.32
2022-08-27T03:10:39.459Z,20.28
2022-08-27T03:11:39.444Z,20.36
2022-08-27T03:12:39.475Z,20.37
2022-08-27T03:13:39.434Z,20.26
2022-08-27T03:14:39.424Z,20.50
2022-08-27T03:15:39.505Z,20.47
2022-08-27T03:16:39.409Z,20.43
2022-08-27T03:17:39.430Z,20.51
2022-08-27T03:18:39.425Z,20.41
2022-08-27T03:19:39.389Z,20.50
2022-08-27T03:20:39.381Z,20.48
2022-08-27T03:21:39.382Z,20.55
2022-08-27T03:22:39.451Z,20.43
2022-08-27T03:23:39.359Z,20.55
2022-08-27T03:24:39.356Z,20.56
2022-08-27T03:25:39.350Z,20.52
2022-08-27T03:26:39.353Z,20.56
2022-08-27T03:27:39.354Z,20.43
2022-08-27T03:28:39.323Z,20.50
2022-08-27T03:29:39.307Z,20.56
2022-08-27T03:30:39.304Z,20.48
2022-08-27T03:31:39.332Z,20.52
2022-08-27T03:32:39.320Z,20.40
2022-08-27T03:33:39.279Z,20.50
2022-08-27T03:34:39.275Z,20.37
2022-08-27T03:35:39.264Z,20.37
2022-08-27T03:36:39.262Z,20.41
2022-08-27T03:37:39.283Z,20.39
2022-08-27T03:38:39.248Z,20.32
2022-08-27T03:39:39.234Z,20.34
2022-08-27T03:40:39.228Z,20.32
2022-08-27T03:41:54.246Z,20.34
2022-08-27T03:42:40.232Z,20.32
2022-08-27T03:43:39.201Z,20.34
2022-08-27T03:44:39.194Z,20.32
2022-08-27T03:46:00.732Z,20.41
2022-08-27T03:46:40.208Z,20.28
2022-08-27T03:47:39.200Z,20.26
2022-08-27T03:48:39.163Z,20.28
2022-08-27T03:49:39.153Z,20.29
2022-08-27T03:50:39.153Z,20.26
2022-08-27T03:51:39.143Z,20.31
2022-08-27T03:52:39.140Z,20.36
2022-08-27T03:53:39.164Z,20.37
2022-08-27T03:54:39.116Z,20.41
2022-08-27T03:55:39.115Z,20.40
2022-08-27T03:56:39.110Z,20.41
2022-08-27T03:57:39.095Z,20.44
2022-08-27T03:58:39.117Z,20.40
2022-08-27T03:59:39.084Z,20.37
2022-08-27T04:00:39.075Z,20.47
2022-08-27T04:01:39.150Z,20.40
2022-08-27T04:02:39.096Z,20.50
2022-08-27T04:03:39.082Z,20.56
2022-08-27T04:04:39.049Z,20.48
2022-08-27T04:05:39.038Z,20.28
2022-08-27T04:06:39.027Z,20.22
2022-08-27T04:07:39.026Z,20.32
2022-08-27T04:08:39.035Z,20.29
2022-08-27T04:09:39.012Z,20.22
2022-08-27T04:10:39.004Z,20.18
2022-08-27T04:11:38.991Z,20.22
2022-08-27T04:12:38.983Z,20.22
2022-08-27T04:13:39.007Z,20.14
2022-08-27T04:14:38.967Z,20.29
2022-08-27T04:15:40.809Z,20.21
2022-08-27T04:16:38.956Z,20.26
2022-08-27T04:17:38.947Z,20.25
2022-08-27T04:18:39.024Z,20.18
2022-08-27T04:19:38.933Z,20.21
2022-08-27T04:20:38.927Z,20.22
2022-08-27T04:21:38.926Z,20.14
2022-08-27T04:22:38.916Z,20.22
2022-08-27T04:23:38.938Z,20.22
2022-08-27T04:24:38.910Z,20.14
2022-08-27T04:25:38.895Z,20.24
2022-08-27T04:26:38.890Z,20.16
2022-08-27T04:27:38.902Z,20.28
2022-08-27T04:28:39.186Z,20.32
2022-08-27T04:29:38.856Z,20.39
2022-08-27T04:30:38.847Z,20.32
2022-08-27T04:31:38.929Z,20.36
2022-08-27T04:32:38.862Z,20.26
2022-08-27T04:33:38.830Z,20.36
2022-08-27T04:34:38.819Z,20.32
2022-08-27T04:35:38.814Z,20.36
2022-08-27T04:36:38.802Z,20.43
2022-08-27T04:37:38.823Z,20.43
2022-08-27T04:38:38.790Z,20.50
2022-08-27T04:39:38.778Z,20.50
2022-08-27T04:40:38.772Z,20.47
2022-08-27T04:41:38.762Z,20.48
2022-08-27T04:42:38.759Z,20.50
2022-08-27T04:43:38.775Z,20.44
2022-08-27T04:44:38.740Z,20.39
2022-08-27T04:45:38.731Z,20.47
2022-08-27T04:46:38.827Z,20.40
2022-08-27T04:47:38.721Z,20.47
2022-08-27T04:48:38.739Z,20.44
2022-08-27T04:49:38.705Z,20.51
2022-08-27T04:50:38.692Z,20.56
2022-08-27T04:51:40.013Z,20.47
2022-08-27T04:52:41.156Z,20.52
2022-08-27T04:53:38.698Z,20.52
2022-08-27T04:54:38.668Z,20.58
2022-08-27T04:55:38.659Z,20.55
2022-08-27T04:56:38.655Z,20.43
2022-08-27T04:57:38.648Z,20.43
2022-08-27T04:58:38.653Z,20.47
2022-08-27T04:59:38.618Z,20.44
2022-08-27T05:00:38.612Z,20.48
2022-08-27T05:01:38.667Z,20.40
2022-08-27T05:02:38.606Z,20.41
2022-08-27T05:03:38.622Z,20.37
2022-08-27T05:04:38.591Z,20.34
2022-08-27T05:05:38.606Z,20.37
2022-08-27T05:06:38.575Z,20.39
2022-08-27T05:07:38.564Z,20.37
2022-08-27T05:08:38.577Z,20.31
2022-08-27T05:09:38.547Z,20.34
2022-08-27T05:10:38.536Z,20.24
2022-08-27T05:11:38.532Z,20.34
2022-08-27T05:12:38.518Z,20.26
2022-08-27T05:13:38.544Z,20.39
2022-08-27T05:14:38.505Z,20.40
2022-08-27T05:15:38.583Z,20.40
2022-08-27T05:16:38.494Z,20.50
2022-08-27T05:17:38.483Z,20.37
2022-08-27T05:18:42.284Z,20.40
2022-08-27T05:19:39.473Z,20.44
2022-08-27T05:20:38.465Z,20.43
2022-08-27T05:21:38.450Z,20.43
2022-08-27T05:22:38.453Z,20.31
2022-08-27T05:23:38.474Z,20.36
2022-08-27T05:24:38.431Z,20.39
2022-08-27T05:25:38.432Z,20.50
2022-08-27T05:26:38.422Z,20.50
2022-08-27T05:27:38.412Z,20.40
2022-08-27T05:28:38.429Z,20.52
2022-08-27T05:29:38.395Z,20.51
2022-08-27T05:30:38.451Z,20.48
2022-08-27T05:31:38.458Z,20.58
2022-08-27T05:32:38.371Z,20.52
2022-08-27T05:33:38.355Z,20.62
2022-08-27T05:34:38.376Z,20.63
2022-08-27T05:35:38.341Z,20.63
2022-08-27T05:36:38.333Z,20.59
2022-08-27T05:37:39.326Z,20.59
2022-08-27T05:38:38.328Z,20.58
2022-08-27T05:39:38.344Z,20.59
2022-08-27T05:40:38.310Z,20.50
2022-08-27T05:41:38.295Z,20.55
2022-08-27T05:42:38.289Z,20.58
2022-08-27T05:43:38.279Z,20.55
2022-08-27T05:44:42.138Z,20.63
2022-08-27T05:45:39.269Z,20.59
2022-08-27T05:46:38.316Z,20.55
2022-08-27T05:47:44.471Z,20.58
2022-08-27T05:48:39.248Z,20.58
2022-08-27T05:49:38.265Z,20.47
2022-08-27T05:50:38.229Z,20.41
2022-08-27T05:51:38.218Z,20.40
2022-08-27T05:52:38.214Z,20.43
2022-08-27T05:53:38.207Z,20.43
2022-08-27T05:54:38.223Z,20.41
2022-08-27T05:55:38.194Z,20.31
2022-08-27T05:56:38.190Z,20.34
2022-08-27T05:57:38.174Z,20.37
2022-08-27T05:58:38.168Z,20.28
2022-08-27T05:59:38.182Z,20.29
2022-08-27T06:00:38.160Z,20.32
2022-08-27T06:01:38.144Z,20.29
2022-08-27T06:02:38.197Z,20.10
2022-08-27T06:03:38.124Z,20.04
2022-08-27T06:04:38.142Z,20.10
2022-08-27T06:05:38.164Z,20.09
2022-08-27T06:06:38.105Z,20.13
2022-08-27T06:07:38.095Z,20.07
2022-08-27T06:08:38.090Z,20.00
2022-08-27T06:09:38.104Z,19.96
2022-08-27T06:10:38.072Z,19.99
2022-08-27T06:11:38.060Z,19.96
2022-08-27T06:12:38.055Z,20.06
2022-08-27T06:13:38.068Z,19.99
2022-08-27T06:14:38.067Z,20.06
2022-08-27T06:15:38.092Z,20.04
2022-08-27T06:16:38.020Z,20.00
2022-08-27T06:17:38.012Z,19.96
2022-08-27T06:18:39.010Z,19.81
2022-08-27T06:19:38.025Z,19.88
2022-08-27T06:20:37.993Z,19.76
2022-08-27T06:21:37.984Z,19.84
2022-08-27T06:22:37.976Z,19.84
2022-08-27T06:23:37.965Z,19.85
2022-08-27T06:24:37.995Z,19.89
2022-08-27T06:25:37.961Z,19.79
2022-08-27T06:26:37.943Z,19.85
2022-08-27T06:27:37.938Z,19.89
2022-08-27T06:28:37.930Z,19.84
2022-08-27T06:29:37.954Z,19.91
2022-08-27T06:30:37.948Z,19.91
2022-08-27T06:31:38.801Z,19.86
2022-08-27T06:32:37.901Z,19.94
2022-08-27T06:33:37.895Z,20.00
2022-08-27T06:34:37.923Z,20.09
2022-08-27T06:35:37.885Z,20.03
2022-08-27T06:36:37.878Z,20.07
2022-08-27T06:37:37.869Z,20.06
2022-08-27T06:38:37.860Z,20.18
2022-08-27T06:39:37.891Z,20.18
2022-08-27T06:40:37.912Z,20.16
2022-08-27T06:41:37.834Z,20.16
2022-08-27T06:42:37.822Z,20.04
2022-08-27T06:43:37.817Z,19.88
2022-08-27T06:44:37.838Z,19.96
2022-08-27T06:45:37.807Z,19.99
2022-08-27T06:46:37.844Z,19.91
2022-08-27T06:47:37.783Z,19.89
2022-08-27T06:48:37.781Z,19.89
2022-08-27T06:49:38.802Z,19.92
2022-08-27T06:50:37.764Z,20.02
2022-08-27T06:51:37.755Z,19.92
2022-08-27T06:52:37.747Z,19.92
2022-08-27T06:53:37.746Z,19.94
2022-08-27T06:54:37.754Z,19.99
2022-08-27T06:55:37.727Z,19.86
2022-08-27T06:56:37.724Z,19.92
2022-08-27T06:57:37.707Z,19.85
2022-08-27T06:58:37.701Z,19.88
2022-08-27T06:59:38.768Z,19.84
2022-08-27T07:00:37.690Z,20.03
2022-08-27T07:01:37.733Z,20.03
2022-08-27T07:02:37.844Z,20.09
2022-08-27T07:03:37.668Z,20.11
2022-08-27T07:04:37.689Z,20.02
2022-08-27T07:05:37.648Z,19.95
2022-08-27T07:06:37.639Z,19.88
2022-08-27T07:07:43.168Z,19.91
2022-08-27T07:08:39.626Z,19.99
2022-08-27T07:09:37.645Z,20.02
2022-08-27T07:10:37.608Z,20.07
2022-08-27T07:11:37.610Z,20.21
2022-08-27T07:12:37.594Z,20.25
2022-08-27T07:13:37.587Z,20.22
2022-08-27T07:14:38.402Z,20.24
2022-08-27T07:15:38.616Z,20.21
2022-08-27T07:16:37.564Z,20.25
2022-08-27T07:17:37.560Z,20.26
2022-08-27T07:18:37.547Z,20.34
2022-08-27T07:19:37.568Z,20.31
2022-08-27T07:20:37.539Z,20.32
2022-08-27T07:21:37.534Z,20.19
2022-08-27T07:22:37.519Z,20.28
2022-08-27T07:23:37.514Z,20.25
2022-08-27T07:24:37.531Z,20.26
2022-08-27T07:25:37.494Z,20.18
2022-08-27T07:26:37.488Z,20.16
2022-08-27T07:27:37.482Z,20.28
2022-08-27T07:28:37.472Z,20.41
2022-08-27T07:29:37.490Z,20.40
2022-08-27T07:30:37.505Z,20.32
2022-08-27T07:31:37.449Z,20.28
2022-08-27T07:32:37.460Z,20.21
2022-08-27T07:33:37.437Z,20.11
2022-08-27T07:34:37.457Z,20.03
2022-08-27T07:35:37.426Z,20.09
2022-08-27T07:36:37.420Z,20.00
2022-08-27T07:37:37.406Z,19.89
2022-08-27T07:38:37.407Z,19.81
2022-08-27T07:39:37.419Z,19.82
2022-08-27T07:40:37.422Z,19.74
2022-08-27T07:41:37.375Z,19.63
2022-08-27T07:42:37.370Z,19.67
2022-08-27T07:43:37.359Z,19.64
2022-08-27T07:44:37.371Z,19.76
2022-08-27T07:45:37.363Z,19.67
2022-08-27T07:46:40.066Z,19.73
2022-08-27T07:47:38.324Z,19.70
2022-08-27T07:48:37.913Z,19.74
2022-08-27T07:49:37.337Z,19.74
2022-08-27T07:50:37.302Z,19.64
2022-08-27T07:51:37.296Z,19.70
2022-08-27T07:52:37.285Z,19.74
2022-08-27T07:53:37.285Z,19.88
2022-08-27T07:54:37.296Z,19.88
2022-08-27T07:55:37.281Z,19.84
2022-08-27T07:56:37.309Z,19.86
2022-08-27T07:57:37.253Z,19.95
2022-08-27T07:58:37.247Z,19.96
2022-08-27T07:59:37.262Z,20.07
2022-08-27T08:00:37.227Z,20.11
2022-08-27T08:01:37.267Z,20.21
2022-08-27T08:02:37.252Z,20.09
2022-08-27T08:03:37.213Z,20.09
2022-08-27T08:04:37.224Z,20.11
2022-08-27T08:05:37.190Z,20.18
2022-08-27T08:06:37.184Z,20.28
2022-08-27T08:07:37.174Z,20.34
2022-08-27T08:08:37.173Z,20.37
2022-08-27T08:09:37.186Z,20.47
2022-08-27T08:10:37.154Z,20.39
2022-08-27T08:11:37.149Z,20.41
2022-08-27T08:12:37.134Z,20.50
2022-08-27T08:13:37.138Z,20.55
2022-08-27T08:14:37.154Z,20.70
2022-08-27T08:15:37.114Z,20.66
2022-08-27T08:16:37.141Z,20.75
2022-08-27T08:17:37.119Z,20.78
2022-08-27T08:18:37.092Z,20.80
2022-08-27T08:19:37.085Z,20.78
2022-08-27T08:20:57.009Z,20.84
2022-08-27T08:21:39.087Z,20.67
2022-08-27T08:22:37.057Z,20.66
2022-08-27T08:23:37.055Z,20.65
2022-08-27T08:24:37.047Z,20.60
2022-08-27T08:25:38.766Z,20.66
2022-08-27T08:26:37.038Z,20.74
2022-08-27T08:27:37.030Z,20.72
2022-08-27T08:28:37.028Z,20.78
2022-08-27T08:29:37.004Z,20.74
2022-08-27T08:30:38.087Z,20.70
2022-08-27T08:31:37.001Z,20.60
2022-08-27T08:32:36.987Z,20.44
2022-08-27T08:33:36.979Z,20.24
2022-08-27T08:34:36.978Z,20.29
2022-08-27T08:35:40.887Z,20.36
2022-08-27T08:36:36.959Z,20.31
2022-08-27T08:37:36.947Z,20.43
2022-08-27T08:38:36.944Z,20.52
2022-08-27T08:39:36.930Z,20.55
2022-08-27T08:40:36.974Z,20.56
2022-08-27T08:41:36.919Z,20.60
2022-08-27T08:42:36.910Z,20.40
2022-08-27T08:43:36.901Z,20.43
2022-08-27T08:44:36.902Z,20.34
2022-08-27T08:45:36.961Z,20.47
2022-08-27T08:46:36.879Z,20.43
2022-08-27T08:47:36.873Z,20.58
2022-08-27T08:48:36.868Z,20.58
2022-08-27T08:49:36.858Z,20.52
2022-08-27T08:50:36.873Z,20.70
2022-08-27T08:51:36.841Z,20.74
2022-08-27T08:52:36.833Z,20.75
2022-08-27T08:53:36.827Z,20.77
2022-08-27T08:54:36.816Z,20.80
2022-08-27T08:55:36.836Z,20.75
2022-08-27T08:56:36.803Z,20.81
2022-08-27T08:57:36.798Z,20.82
2022-08-27T08:58:36.787Z,20.85
2022-08-27T08:59:36.779Z,20.77
2022-08-27T09:00:36.795Z,20.77
2022-08-27T09:01:36.872Z,20.70
2022-08-27T09:02:36.757Z,20.72
2022-08-27T09:03:36.767Z,20.66
2022-08-27T09:04:36.740Z,20.65
2022-08-27T09:05:36.758Z,20.59
2022-08-27T09:06:36.721Z,20.59
2022-08-27T09:07:36.845Z,20.81
2022-08-27T09:08:41.056Z,20.77
2022-08-27T09:09:37.731Z,20.85
2022-08-27T09:10:36.719Z,20.82
2022-08-27T09:11:36.692Z,21.00
2022-08-27T09:12:36.686Z,21.05
2022-08-27T09:13:36.670Z,21.03
2022-08-27T09:14:36.664Z,21.06
2022-08-27T09:15:36.685Z,21.07
2022-08-27T09:16:36.703Z,21.20
2022-08-27T09:17:36.626Z,21.18
2022-08-27T09:18:37.633Z,21.03
2022-08-27T09:19:36.616Z,21.17
2022-08-27T09:20:37.637Z,20.96
2022-08-27T09:21:36.607Z,21.05
2022-08-27T09:22:36.598Z,21.18
2022-08-27T09:23:36.589Z,21.06
2022-08-27T09:24:36.586Z,21.12
2022-08-27T09:25:36.604Z,21.11
2022-08-27T09:26:37.179Z,21.15
2022-08-27T09:27:36.557Z,21.30
2022-08-27T09:28:36.550Z,21.24
2022-08-27T09:29:36.542Z,21.11
2022-08-27T09:30:36.617Z,21.05
2022-08-27T09:31:36.529Z,21.06
2022-08-27T09:32:36.520Z,21.27
2022-08-27T09:33:44.483Z,21.32
2022-08-27T09:34:37.502Z,21.09
2022-08-27T09:35:36.522Z,21.02
2022-08-27T09:36:36.501Z,21.06
2022-08-27T09:37:36.481Z,20.88
2022-08-27T09:38:36.473Z,21.03
2022-08-27T09:39:36.463Z,21.03
2022-08-27T09:40:36.559Z,21.21
2022-08-27T09:41:36.446Z,21.33
2022-08-27T09:42:36.439Z,21.32
2022-08-27T09:43:36.432Z,21.45
2022-08-27T09:44:36.427Z,21.66
2022-08-27T09:45:36.514Z,21.70
2022-08-27T09:46:36.411Z,21.72
2022-08-27T09:47:36.404Z,21.75
2022-08-27T09:48:36.393Z,21.77
2022-08-27T09:49:36.385Z,21.72
2022-08-27T09:50:38.623Z,21.70
2022-08-27T09:51:37.370Z,21.72
2022-08-27T09:52:37.716Z,21.95
2022-08-27T09:53:36.362Z,22.00
2022-08-27T09:54:36.347Z,22.32
2022-08-27T09:55:36.367Z,22.57
2022-08-27T09:56:36.388Z,22.66
2022-08-27T09:57:36.321Z,22.69
2022-08-27T09:58:36.317Z,22.72
2022-08-27T09:59:36.309Z,22.75
2022-08-27T10:00:36.344Z,22.68
2022-08-27T10:01:36.395Z,22.36
2022-08-27T10:02:36.286Z,22.25
2022-08-27T10:03:36.356Z,22.15
2022-08-27T10:04:50.174Z,22.08
2022-08-27T10:05:37.295Z,21.95
2022-08-27T10:06:36.257Z,22.10
2022-08-27T10:07:36.245Z,22.17
2022-08-27T10:08:36.240Z,22.04
2022-08-27T10:09:36.232Z,21.85
2022-08-27T10:10:36.249Z,21.85
2022-08-27T10:11:36.251Z,21.88
2022-08-27T10:12:36.209Z,21.92
2022-08-27T10:13:36.207Z,21.89
2022-08-27T10:14:36.194Z,21.82
2022-08-27T10:15:36.476Z,21.79
2022-08-27T10:16:37.220Z,21.80
2022-08-27T10:17:36.172Z,21.72
2022-08-27T10:18:36.168Z,21.77
2022-08-27T10:19:36.158Z,21.82
2022-08-27T10:20:36.174Z,21.89
2022-08-27T10:21:36.142Z,21.95
2022-08-27T10:22:36.141Z,21.88
2022-08-27T10:23:36.125Z,21.95
2022-08-27T10:24:36.120Z,21.98
2022-08-27T10:25:36.134Z,21.98
2022-08-27T10:26:36.098Z,21.82
2022-08-27T10:27:36.093Z,21.79
2022-08-27T10:28:36.085Z,21.82
2022-08-27T10:29:36.075Z,21.88
2022-08-27T10:30:36.096Z,21.92
2022-08-27T10:31:36.145Z,22.02
2022-08-27T10:32:36.053Z,22.04
2022-08-27T10:33:36.044Z,21.95
2022-08-27T10:34:37.501Z,22.04
2022-08-27T10:35:36.058Z,21.83
2022-08-27T10:36:37.019Z,21.85
2022-08-27T10:37:40.211Z,21.83
2022-08-27T10:38:36.007Z,21.96
2022-08-27T10:39:35.993Z,22.02
2022-08-27T10:40:36.073Z,21.96
2022-08-27T10:41:35.979Z,21.82
2022-08-27T10:42:35.973Z,21.72
2022-08-27T10:43:35.963Z,21.69
2022-08-27T10:44:36.957Z,21.73
2022-08-27T10:45:36.024Z,21.67
2022-08-27T10:46:36.010Z,21.76
2022-08-27T10:47:36.937Z,21.89
2022-08-27T10:48:35.932Z,21.77
2022-08-27T10:49:35.921Z,21.80
2022-08-27T10:50:35.915Z,21.99
2022-08-27T10:51:35.933Z,21.88
2022-08-27T10:52:35.898Z,21.80
2022-08-27T10:53:35.893Z,21.79
2022-08-27T10:54:35.885Z,21.79
2022-08-27T10:55:35.876Z,21.72
2022-08-27T10:56:35.895Z,21.70
2022-08-27T10:57:55.252Z,21.72
2022-08-27T10:58:37.857Z,21.85
2022-08-27T10:59:35.852Z,21.70
2022-08-27T11:00:35.868Z,21.64
2022-08-27T11:01:35.858Z,21.70
2022-08-27T11:02:35.886Z,21.77
2022-08-27T11:03:35.818Z,21.82
2022-08-27T11:04:35.812Z,21.75
2022-08-27T11:05:35.806Z,21.82
2022-08-27T11:06:35.821Z,21.85
2022-08-27T11:07:35.776Z,21.80
2022-08-27T11:08:36.781Z,21.79
2022-08-27T11:09:35.774Z,21.79
2022-08-27T11:10:35.765Z,21.91
2022-08-27T11:12:37.748Z,21.91
2022-08-27T11:13:35.741Z,22.06
2022-08-27T11:14:35.729Z,22.13
2022-08-27T11:15:35.723Z,22.00
2022-08-27T11:16:35.780Z,22.07
2022-08-27T11:17:35.710Z,22.00
2022-08-27T11:18:35.703Z,22.08
2022-08-27T11:19:35.698Z,22.25
2022-08-27T11:20:35.681Z,22.17
2022-08-27T11:21:35.702Z,22.13
2022-08-27T11:22:35.669Z,21.93
2022-08-27T11:23:35.659Z,21.96
2022-08-27T11:24:35.652Z,22.00
2022-08-27T11:25:35.642Z,22.04
2022-08-27T11:26:35.661Z,22.33
2022-08-27T11:27:35.627Z,22.47
2022-08-27T11:28:35.619Z,22.81
2022-08-27T11:29:35.611Z,22.73
2022-08-27T11:30:35.607Z,22.81
2022-08-27T11:31:35.668Z,22.80
2022-08-27T11:32:35.591Z,22.87
2022-08-27T11:33:35.585Z,22.81
2022-08-27T11:34:35.577Z,22.80
2022-08-27T11:35:35.569Z,22.93
2022-08-27T11:36:35.585Z,23.03
2022-08-27T11:37:35.556Z,23.05
2022-08-27T11:38:35.549Z,23.10
2022-08-27T11:39:35.537Z,23.08
2022-08-27T11:40:36.560Z,23.05
2022-08-27T11:41:44.597Z,22.83
2022-08-27T11:42:36.517Z,22.69
2022-08-27T11:43:35.512Z,22.50
2022-08-27T11:44:35.504Z,22.57
2022-08-27T11:45:35.496Z,22.57
2022-08-27T11:46:35.610Z,22.57
2022-08-27T11:47:35.568Z,22.55
2022-08-27T11:48:35.476Z,22.72
2022-08-27T11:49:35.467Z,22.84
2022-08-27T11:50:35.460Z,22.91
2022-08-27T11:51:35.476Z,22.91
2022-08-27T11:52:35.444Z,22.88
2022-08-27T11:53:35.439Z,23.05
2022-08-27T11:54:36.428Z,23.09
2022-08-27T11:55:35.421Z,23.03
2022-08-27T11:56:35.439Z,22.85
2022-08-27T11:57:35.403Z,22.84
2022-08-27T11:58:52.558Z,22.62
2022-08-27T11:59:36.389Z,22.68
2022-08-27T12:00:35.380Z,22.76
2022-08-27T12:01:35.395Z,22.78
2022-08-27T12:02:35.368Z,22.70
2022-08-27T12:03:35.732Z,22.84
2022-08-27T12:04:35.404Z,22.94
2022-08-27T12:05:35.335Z,23.02
2022-08-27T12:06:35.353Z,22.93
2022-08-27T12:07:35.321Z,22.70
2022-08-27T12:08:35.315Z,22.59
2022-08-27T12:09:35.304Z,22.62
2022-08-27T12:10:36.626Z,22.53
2022-08-27T12:11:35.319Z,22.39
2022-08-27T12:12:35.286Z,22.53
2022-08-27T12:13:35.279Z,22.69
2022-08-27T12:14:35.272Z,22.99
2022-08-27T12:15:35.263Z,23.02
2022-08-27T12:16:35.364Z,23.00
2022-08-27T12:17:35.250Z,22.83
2022-08-27T12:18:35.240Z,22.76
2022-08-27T12:19:35.235Z,22.87
2022-08-27T12:20:35.224Z,22.96
2022-08-27T12:21:35.245Z,23.02
2022-08-27T12:22:39.140Z,23.15
2022-08-27T12:23:36.200Z,23.27
2022-08-27T12:24:35.191Z,23.55
2022-08-27T12:25:35.185Z,23.78
2022-08-27T12:26:35.176Z,23.84
2022-08-27T12:27:35.189Z,23.81
2022-08-27T12:28:35.160Z,23.54
2022-08-27T12:29:35.152Z,23.40
2022-08-27T12:30:35.142Z,23.20
2022-08-27T12:31:35.190Z,22.94
2022-08-27T12:32:35.156Z,22.83
2022-08-27T12:33:35.120Z,22.81
2022-08-27T12:34:35.112Z,22.80
2022-08-27T12:35:35.104Z,22.65
2022-08-27T12:36:35.820Z,22.66
2022-08-27T12:37:35.116Z,22.50
2022-08-27T12:38:35.078Z,22.39
2022-08-27T12:39:35.071Z,22.55
2022-08-27T12:40:35.118Z,22.65
2022-08-27T12:41:44.694Z,22.78
2022-08-27T12:42:36.075Z,22.76
2022-08-27T12:43:35.039Z,22.78
2022-08-27T12:44:35.032Z,22.90
2022-08-27T12:45:35.028Z,22.87
2022-08-27T12:46:35.072Z,23.02
2022-08-27T12:47:35.041Z,23.12
2022-08-27T12:48:35.007Z,23.13
2022-08-27T12:49:38.363Z,23.27
2022-08-27T12:50:34.984Z,23.20
2022-08-27T12:51:35.988Z,23.18
2022-08-27T12:52:35.004Z,23.21
2022-08-27T12:53:34.973Z,23.34